AUA101 LOWW-LOWI
Flight info
| Callsign | AUA101 |
|---|---|
| Flight time | 0h 44m |
| Altitude | 30000 |
| Route | SOVIL DCT SITNI DCT BAGSI DCT NANIT |
| Aircraft | A320/M-SDE3FGHIRWY/LB1 |
Departure
| Time | 2026-04-20 18:13 |
|---|---|
| Airport | Vienna International Airport (LOWW) |
Arrival
| Time | 2026-04-20 18:57 |
|---|---|
| Airport | Innsbruck Airport (LOWI) |
| Time | Latitude | Longitude | Altitude | Speed | Heading |
|---|---|---|---|---|---|
| 2026-04-20 17:43 | 48.11595 | 16.57151 | 617 ft | 0 kts | 26° |
| 2026-04-20 18:08 | 48.11601 | 16.57155 | 611 ft | 3 kts | 23° |
| 2026-04-20 18:09 | 48.11647 | 16.57210 | 623 ft | 11 kts | 73° |
| 2026-04-20 18:09 | 48.11624 | 16.57314 | 615 ft | 10 kts | 114° |
| 2026-04-20 18:09 | 48.11578 | 16.57427 | 611 ft | 14 kts | 137° |
| 2026-04-20 18:09 | 48.11487 | 16.57455 | 611 ft | 13 kts | 198° |
| 2026-04-20 18:10 | 48.11412 | 16.57402 | 617 ft | 9 kts | 207° |
| 2026-04-20 18:10 | 48.11357 | 16.57363 | 615 ft | 8 kts | 205° |
| 2026-04-20 18:10 | 48.11309 | 16.57329 | 615 ft | 7 kts | 205° |
| 2026-04-20 18:10 | 48.11261 | 16.57296 | 614 ft | 12 kts | 205° |
| 2026-04-20 18:11 | 48.11177 | 16.57235 | 625 ft | 6 kts | 206° |
| 2026-04-20 18:11 | 48.11158 | 16.57220 | 622 ft | 0 kts | 207° |
| 2026-04-20 18:11 | 48.11141 | 16.57207 | 615 ft | 9 kts | 207° |
| 2026-04-20 18:11 | 48.11067 | 16.57144 | 621 ft | 12 kts | 226° |
| 2026-04-20 18:12 | 48.11074 | 16.57042 | 623 ft | 10 kts | 295° |
| 2026-04-20 18:12 | 48.11137 | 16.56853 | 615 ft | 47 kts | 296° |
| 2026-04-20 18:12 | 48.11385 | 16.56093 | 610 ft | 113 kts | 296° |
| 2026-04-20 18:12 | 48.11809 | 16.54795 | 627 ft | 162 kts | 297° |
| 2026-04-20 18:13 | 48.12244 | 16.53241 | 1215 ft | 165 kts | 281° |
| 2026-04-20 18:13 | 48.11990 | 16.51548 | 1897 ft | 177 kts | 241° |
| 2026-04-20 18:13 | 48.11277 | 16.49941 | 2324 ft | 195 kts | 243° |
| 2026-04-20 18:13 | 48.10577 | 16.48076 | 2651 ft | 216 kts | 245° |
| 2026-04-20 18:14 | 48.09845 | 16.46006 | 3086 ft | 235 kts | 245° |
| 2026-04-20 18:14 | 48.08926 | 16.43833 | 3609 ft | 258 kts | 238° |
| 2026-04-20 18:14 | 48.07857 | 16.41621 | 4439 ft | 265 kts | 236° |
| 2026-04-20 18:14 | 48.06744 | 16.39402 | 5400 ft | 268 kts | 236° |
| 2026-04-20 18:15 | 48.05620 | 16.37176 | 6392 ft | 268 kts | 236° |
| 2026-04-20 18:15 | 48.04502 | 16.34946 | 7350 ft | 268 kts | 238° |
| 2026-04-20 18:15 | 48.03659 | 16.32487 | 8277 ft | 265 kts | 255° |
| 2026-04-20 18:15 | 48.03322 | 16.29795 | 9235 ft | 263 kts | 270° |
| 2026-04-20 18:16 | 48.03358 | 16.27100 | 10156 ft | 263 kts | 273° |
| 2026-04-20 18:16 | 48.03416 | 16.24270 | 10561 ft | 284 kts | 273° |
| 2026-04-20 18:16 | 48.03474 | 16.21249 | 10953 ft | 301 kts | 272° |
| 2026-04-20 18:16 | 48.03529 | 16.18080 | 11650 ft | 308 kts | 272° |
| 2026-04-20 18:17 | 48.03586 | 16.14872 | 12439 ft | 311 kts | 272° |
| 2026-04-20 18:17 | 48.03644 | 16.11614 | 13221 ft | 315 kts | 272° |
| 2026-04-20 18:17 | 48.03700 | 16.08331 | 13975 ft | 318 kts | 272° |
| 2026-04-20 18:17 | 48.03752 | 16.05010 | 14644 ft | 321 kts | 272° |
| 2026-04-20 18:18 | 48.03802 | 16.01678 | 15322 ft | 324 kts | 272° |
| 2026-04-20 18:18 | 48.03851 | 15.98534 | 15969 ft | 326 kts | 272° |
| 2026-04-20 18:18 | 48.03902 | 15.95131 | 16660 ft | 329 kts | 272° |
| 2026-04-20 18:18 | 48.03954 | 15.91697 | 17333 ft | 332 kts | 272° |
| 2026-04-20 18:19 | 48.03859 | 15.88240 | 17995 ft | 337 kts | 261° |
| 2026-04-20 18:19 | 48.03323 | 15.84819 | 18613 ft | 340 kts | 258° |
| 2026-04-20 18:19 | 48.02757 | 15.81377 | 19214 ft | 342 kts | 258° |
| 2026-04-20 18:19 | 48.02183 | 15.77921 | 19840 ft | 343 kts | 258° |
| 2026-04-20 18:20 | 48.01614 | 15.74525 | 20471 ft | 344 kts | 259° |
| 2026-04-20 18:20 | 48.01032 | 15.71053 | 21059 ft | 346 kts | 259° |
| 2026-04-20 18:20 | 48.00446 | 15.67560 | 21618 ft | 347 kts | 259° |
| 2026-04-20 18:20 | 47.99860 | 15.64061 | 22242 ft | 348 kts | 259° |
| 2026-04-20 18:21 | 47.99278 | 15.60597 | 22820 ft | 349 kts | 259° |
| 2026-04-20 18:21 | 47.98687 | 15.57073 | 23385 ft | 351 kts | 259° |
| 2026-04-20 18:21 | 47.98093 | 15.53531 | 23843 ft | 353 kts | 259° |
| 2026-04-20 18:21 | 47.97497 | 15.49980 | 24323 ft | 353 kts | 259° |
| 2026-04-20 18:22 | 47.96895 | 15.46422 | 24793 ft | 354 kts | 259° |
| 2026-04-20 18:22 | 47.96289 | 15.42846 | 25255 ft | 355 kts | 260° |
| 2026-04-20 18:22 | 47.95682 | 15.39272 | 25712 ft | 356 kts | 260° |
| 2026-04-20 18:22 | 47.95070 | 15.35681 | 26147 ft | 357 kts | 260° |
| 2026-04-20 18:23 | 47.94458 | 15.32085 | 26555 ft | 359 kts | 260° |
| 2026-04-20 18:23 | 47.93842 | 15.28472 | 27002 ft | 360 kts | 261° |
| 2026-04-20 18:23 | 47.93223 | 15.24850 | 27437 ft | 361 kts | 261° |
| 2026-04-20 18:23 | 47.92602 | 15.21221 | 27801 ft | 362 kts | 261° |
| 2026-04-20 18:24 | 47.91984 | 15.17621 | 28174 ft | 364 kts | 261° |
| 2026-04-20 18:24 | 47.91354 | 15.13961 | 28587 ft | 366 kts | 261° |
| 2026-04-20 18:24 | 47.90716 | 15.10272 | 28949 ft | 368 kts | 261° |
| 2026-04-20 18:24 | 47.90077 | 15.06582 | 29228 ft | 368 kts | 261° |
| 2026-04-20 18:25 | 47.89436 | 15.02887 | 29504 ft | 369 kts | 261° |
| 2026-04-20 18:25 | 47.88790 | 14.99186 | 29791 ft | 370 kts | 261° |
| 2026-04-20 18:25 | 47.88140 | 14.95474 | 29999 ft | 371 kts | 261° |
| 2026-04-20 18:25 | 47.87495 | 14.91817 | 30041 ft | 357 kts | 261° |
| 2026-04-20 18:26 | 47.86263 | 14.84833 | 30031 ft | 345 kts | 262° |
| 2026-04-20 18:26 | 47.85068 | 14.77977 | 30032 ft | 344 kts | 262° |
| 2026-04-20 18:27 | 47.83861 | 14.71070 | 30042 ft | 345 kts | 261° |
| 2026-04-20 18:27 | 47.82645 | 14.64164 | 30051 ft | 345 kts | 261° |
| 2026-04-20 18:28 | 47.81420 | 14.57284 | 30035 ft | 344 kts | 261° |
| 2026-04-20 18:28 | 47.80187 | 14.50399 | 30034 ft | 345 kts | 261° |
| 2026-04-20 18:29 | 47.78949 | 14.43494 | 30019 ft | 346 kts | 261° |
| 2026-04-20 18:29 | 47.77721 | 14.36638 | 30021 ft | 345 kts | 261° |
| 2026-04-20 18:30 | 47.76480 | 14.29737 | 30027 ft | 345 kts | 261° |
| 2026-04-20 18:30 | 47.75231 | 14.22835 | 30032 ft | 346 kts | 261° |
| 2026-04-20 18:31 | 47.73976 | 14.15928 | 30039 ft | 347 kts | 261° |
| 2026-04-20 18:31 | 47.72723 | 14.09055 | 30039 ft | 347 kts | 261° |
| 2026-04-20 18:32 | 47.71504 | 14.02143 | 30040 ft | 347 kts | 261° |
| 2026-04-20 18:32 | 47.70362 | 13.95176 | 30029 ft | 347 kts | 262° |
| 2026-04-20 18:33 | 47.69228 | 13.88223 | 30031 ft | 347 kts | 262° |
| 2026-04-20 18:33 | 47.68076 | 13.81263 | 30033 ft | 347 kts | 262° |
| 2026-04-20 18:34 | 47.66920 | 13.74342 | 30041 ft | 349 kts | 261° |
| 2026-04-20 18:34 | 47.65744 | 13.67367 | 30037 ft | 349 kts | 261° |
| 2026-04-20 18:35 | 47.64566 | 13.60371 | 30042 ft | 350 kts | 261° |
| 2026-04-20 18:35 | 47.63387 | 13.53384 | 30040 ft | 350 kts | 261° |
| 2026-04-20 18:36 | 47.62208 | 13.46428 | 30045 ft | 351 kts | 261° |
| 2026-04-20 18:36 | 47.60997 | 13.39366 | 30047 ft | 354 kts | 261° |
| 2026-04-20 18:37 | 47.60392 | 13.35857 | 29529 ft | 350 kts | 261° |
| 2026-04-20 18:37 | 47.59796 | 13.32389 | 28982 ft | 346 kts | 261° |
| 2026-04-20 18:37 | 47.59208 | 13.28978 | 28597 ft | 338 kts | 261° |
| 2026-04-20 18:37 | 47.58630 | 13.25635 | 28057 ft | 333 kts | 261° |
| 2026-04-20 18:38 | 47.58060 | 13.22334 | 27556 ft | 329 kts | 261° |
| 2026-04-20 18:38 | 47.57496 | 13.19068 | 27065 ft | 326 kts | 261° |
| 2026-04-20 18:38 | 47.56934 | 13.15823 | 26607 ft | 323 kts | 261° |
| 2026-04-20 18:38 | 47.56384 | 13.12655 | 26164 ft | 321 kts | 261° |
| 2026-04-20 18:39 | 47.55831 | 13.09474 | 25742 ft | 318 kts | 261° |
| 2026-04-20 18:39 | 47.55281 | 13.06320 | 25296 ft | 315 kts | 261° |
| 2026-04-20 18:39 | 47.54913 | 13.04206 | 24979 ft | 313 kts | 261° |
| 2026-04-20 18:39 | 47.54670 | 13.02796 | 24814 ft | 310 kts | 261° |
| 2026-04-20 18:40 | 47.54134 | 12.99706 | 24368 ft | 309 kts | 261° |
| 2026-04-20 18:40 | 47.53599 | 12.96642 | 23961 ft | 307 kts | 261° |
| 2026-04-20 18:40 | 47.53065 | 12.93601 | 23459 ft | 304 kts | 261° |
| 2026-04-20 18:40 | 47.52534 | 12.90574 | 22872 ft | 303 kts | 261° |
| 2026-04-20 18:41 | 47.52005 | 12.87568 | 22386 ft | 302 kts | 261° |
| 2026-04-20 18:41 | 47.51483 | 12.84615 | 21876 ft | 301 kts | 261° |
| 2026-04-20 18:41 | 47.50954 | 12.81622 | 21367 ft | 300 kts | 260° |
| 2026-04-20 18:41 | 47.50426 | 12.78651 | 20859 ft | 298 kts | 260° |
| 2026-04-20 18:42 | 47.49899 | 12.75684 | 20218 ft | 298 kts | 260° |
| 2026-04-20 18:42 | 47.49376 | 12.72724 | 19621 ft | 298 kts | 260° |
| 2026-04-20 18:42 | 47.48852 | 12.69753 | 19072 ft | 299 kts | 259° |
| 2026-04-20 18:42 | 47.48325 | 12.66777 | 18695 ft | 299 kts | 259° |
| 2026-04-20 18:43 | 47.47795 | 12.63807 | 18301 ft | 299 kts | 259° |
| 2026-04-20 18:43 | 47.47265 | 12.60839 | 17788 ft | 298 kts | 259° |
| 2026-04-20 18:43 | 47.46743 | 12.57920 | 17341 ft | 297 kts | 259° |
| 2026-04-20 18:43 | 47.46217 | 12.54981 | 16873 ft | 295 kts | 259° |
| 2026-04-20 18:44 | 47.45693 | 12.52059 | 16332 ft | 294 kts | 259° |
| 2026-04-20 18:44 | 47.45169 | 12.49149 | 15750 ft | 292 kts | 258° |
| 2026-04-20 18:44 | 47.44647 | 12.46251 | 15201 ft | 291 kts | 258° |
| 2026-04-20 18:44 | 47.44126 | 12.43369 | 14733 ft | 290 kts | 258° |
| 2026-04-20 18:45 | 47.43604 | 12.40496 | 14283 ft | 289 kts | 258° |
| 2026-04-20 18:45 | 47.43083 | 12.37638 | 13776 ft | 288 kts | 258° |
| 2026-04-20 18:45 | 47.42565 | 12.34793 | 13255 ft | 287 kts | 257° |
| 2026-04-20 18:45 | 47.42050 | 12.31959 | 12760 ft | 285 kts | 257° |
| 2026-04-20 18:46 | 47.41544 | 12.29175 | 12304 ft | 282 kts | 257° |
| 2026-04-20 18:46 | 47.41032 | 12.26366 | 12047 ft | 285 kts | 257° |
| 2026-04-20 18:46 | 47.40520 | 12.23543 | 11788 ft | 286 kts | 257° |
| 2026-04-20 18:46 | 47.40003 | 12.20713 | 11530 ft | 286 kts | 257° |
| 2026-04-20 18:47 | 47.39487 | 12.17902 | 11269 ft | 280 kts | 257° |
| 2026-04-20 18:47 | 47.38983 | 12.15158 | 11020 ft | 275 kts | 257° |
| 2026-04-20 18:47 | 47.38490 | 12.12458 | 10753 ft | 271 kts | 257° |
| 2026-04-20 18:47 | 47.38001 | 12.09778 | 10389 ft | 270 kts | 257° |
| 2026-04-20 18:48 | 47.37517 | 12.07136 | 10015 ft | 270 kts | 257° |
| 2026-04-20 18:48 | 47.37024 | 12.04461 | 9648 ft | 271 kts | 257° |
| 2026-04-20 18:48 | 47.36530 | 12.01788 | 9515 ft | 268 kts | 256° |
| 2026-04-20 18:48 | 47.36052 | 11.99214 | 9522 ft | 253 kts | 256° |
| 2026-04-20 18:49 | 47.35598 | 11.96778 | 9522 ft | 239 kts | 257° |
| 2026-04-20 18:49 | 47.35169 | 11.94473 | 9524 ft | 228 kts | 257° |
| 2026-04-20 18:49 | 47.34763 | 11.92291 | 9520 ft | 214 kts | 257° |
| 2026-04-20 18:49 | 47.34378 | 11.90222 | 9520 ft | 205 kts | 257° |
| 2026-04-20 18:50 | 47.34011 | 11.88250 | 9550 ft | 196 kts | 257° |
| 2026-04-20 18:50 | 47.33653 | 11.86320 | 9524 ft | 194 kts | 257° |
| 2026-04-20 18:50 | 47.33292 | 11.84433 | 9519 ft | 194 kts | 255° |
| 2026-04-20 18:50 | 47.32851 | 11.82552 | 9413 ft | 197 kts | 248° |
| 2026-04-20 18:51 | 47.32359 | 11.80711 | 9326 ft | 193 kts | 255° |
| 2026-04-20 18:51 | 47.32021 | 11.78793 | 9220 ft | 194 kts | 259° |
| 2026-04-20 18:51 | 47.31738 | 11.76848 | 8942 ft | 194 kts | 261° |
| 2026-04-20 18:51 | 47.31470 | 11.74900 | 8625 ft | 194 kts | 261° |
| 2026-04-20 18:52 | 47.31205 | 11.72949 | 8292 ft | 194 kts | 261° |
| 2026-04-20 18:52 | 47.30942 | 11.71009 | 7955 ft | 193 kts | 261° |
| 2026-04-20 18:52 | 47.30679 | 11.69080 | 7634 ft | 192 kts | 261° |
| 2026-04-20 18:52 | 47.30420 | 11.67178 | 7314 ft | 192 kts | 261° |
| 2026-04-20 18:53 | 47.30157 | 11.65246 | 6990 ft | 193 kts | 260° |
| 2026-04-20 18:53 | 47.29893 | 11.63309 | 6679 ft | 193 kts | 260° |
| 2026-04-20 18:53 | 47.29626 | 11.61361 | 6349 ft | 194 kts | 260° |
| 2026-04-20 18:53 | 47.29359 | 11.59412 | 6018 ft | 195 kts | 260° |
| 2026-04-20 18:54 | 47.29091 | 11.57456 | 5661 ft | 195 kts | 259° |
| 2026-04-20 18:54 | 47.28825 | 11.55517 | 5283 ft | 191 kts | 259° |
| 2026-04-20 18:54 | 47.28565 | 11.53625 | 4932 ft | 187 kts | 258° |
| 2026-04-20 18:54 | 47.28309 | 11.51762 | 4624 ft | 184 kts | 258° |
| 2026-04-20 18:55 | 47.28057 | 11.49934 | 4364 ft | 179 kts | 258° |
| 2026-04-20 18:55 | 47.27820 | 11.48220 | 4117 ft | 169 kts | 259° |
| 2026-04-20 18:55 | 47.27591 | 11.46566 | 3842 ft | 161 kts | 259° |
| 2026-04-20 18:55 | 47.27343 | 11.45009 | 3551 ft | 153 kts | 254° |
| 2026-04-20 18:56 | 47.27045 | 11.43540 | 3278 ft | 148 kts | 256° |
| 2026-04-20 18:56 | 47.26844 | 11.42074 | 2972 ft | 145 kts | 263° |
| 2026-04-20 18:56 | 47.26709 | 11.40612 | 2770 ft | 144 kts | 263° |
| 2026-04-20 18:56 | 47.26537 | 11.39168 | 2528 ft | 143 kts | 260° |
| 2026-04-20 18:57 | 47.26371 | 11.37744 | 2292 ft | 140 kts | 263° |
| 2026-04-20 18:57 | 47.26228 | 11.36316 | 2067 ft | 142 kts | 261° |
| 2026-04-20 18:57 | 47.26078 | 11.34920 | 1896 ft | 128 kts | 259° |
| 2026-04-20 18:57 | 47.25977 | 11.34000 | 1899 ft | 33 kts | 260° |
| 2026-04-20 18:58 | 47.25947 | 11.33736 | 1897 ft | 14 kts | 253° |
| 2026-04-20 18:58 | 47.25877 | 11.33744 | 1901 ft | 17 kts | 127° |
| 2026-04-20 18:58 | 47.25798 | 11.33904 | 1893 ft | 19 kts | 122° |
| 2026-04-20 18:58 | 47.25771 | 11.34075 | 1899 ft | 17 kts | 86° |
| 2026-04-20 18:59 | 47.25790 | 11.34246 | 1899 ft | 17 kts | 82° |
| 2026-04-20 18:59 | 47.25809 | 11.34427 | 1887 ft | 18 kts | 82° |
| 2026-04-20 18:59 | 47.25829 | 11.34621 | 1899 ft | 20 kts | 79° |
| 2026-04-20 18:59 | 47.25851 | 11.34801 | 1889 ft | 9 kts | 82° |
| 2026-04-20 19:00 | 47.25858 | 11.34880 | 1899 ft | 5 kts | 82° |
| 2026-04-20 19:00 | 47.25861 | 11.34904 | 1899 ft | 0 kts | 82° |
| 2026-04-20 19:01 | 47.25853 | 11.34904 | 1899 ft | 2 kts | 181° |
| 2026-04-20 19:01 | 47.25837 | 11.34881 | 1891 ft | 3 kts | 220° |
| 2026-04-20 19:01 | 47.25804 | 11.34872 | 1899 ft | 6 kts | 175° |
| 2026-04-20 19:02 | 47.25801 | 11.34873 | 1899 ft | 0 kts | 172° |